Time;durP1;ratioP1;P1;durP2;ratioP2;P2;SDS_P1;SDS_P2;PMS_P1;PMS_P2;Temp;Humidity;BMP_temperature;BMP_pressure;BME280_temperature;BME280_humidity;BME280_pressure;Samples;Min_cycle;Max_cycle;Signal;HPM_P1;HPM_P2
2021/06/01 00:00:17;;;;;;;4.25;2.00;;;17.30;68.60;;;;;;5050432;28;20067;-69
2021/06/01 00:02:43;;;;;;;3.65;1.50;;;17.10;68.80;;;;;;5031753;28;20059;-67
2021/06/01 00:05:09;;;;;;;5.55;1.75;;;17.00;69.40;;;;;;5049823;28;20056;-68
2021/06/01 00:07:35;;;;;;;1.75;1.65;;;16.90;69.60;;;;;;5049911;28;20028;-68
2021/06/01 00:10:02;;;;;;;5.47;1.98;;;17.00;70.20;;;;;;5032384;28;20021;-68
2021/06/01 00:12:28;;;;;;;4.47;2.38;;;16.90;70.00;;;;;;5031612;28;20036;-69
2021/06/01 00:14:53;;;;;;;5.47;1.83;;;16.90;70.30;;;;;;5055091;28;20025;-67
2021/06/01 00:17:19;;;;;;;3.88;1.80;;;16.90;70.40;;;;;;5049775;28;20397;-68
2021/06/01 00:19:45;;;;;;;5.25;2.10;;;16.80;71.10;;;;;;5052922;28;20090;-68
2021/06/01 00:22:10;;;;;;;4.05;1.90;;;16.70;71.70;;;;;;5070343;28;20063;-68
2021/06/01 00:24:36;;;;;;;2.75;1.83;;;16.70;72.00;;;;;;5069139;28;20084;-69
2021/06/01 00:27:03;;;;;;;4.53;2.30;;;16.70;71.80;;;;;;5051488;28;20461;-69
2021/06/01 00:29:29;;;;;;;3.08;2.10;;;16.50;72.50;;;;;;5068959;28;20157;-68
2021/06/01 00:31:54;;;;;;;3.03;1.55;;;16.50;72.60;;;;;;5051666;28;20024;-68
2021/06/01 00:34:20;;;;;;;6.05;1.92;;;16.50;72.70;;;;;;5051081;28;20036;-73
2021/06/01 00:36:46;;;;;;;6.78;1.73;;;16.50;72.70;;;;;;5069061;28;20043;-67
2021/06/01 00:39:11;;;;;;;3.22;1.92;;;16.50;73.20;;;;;;5051640;28;20043;-67
2021/06/01 00:41:38;;;;;;;3.60;1.70;;;16.40;72.80;;;;;;5050717;28;20110;-67
2021/06/01 00:44:04;;;;;;;3.55;1.70;;;16.40;72.90;;;;;;5051626;28;20453;-69
2021/06/01 00:46:30;;;;;;;2.42;1.55;;;16.30;73.00;;;;;;5069024;28;20024;-68
2021/06/01 00:48:56;;;;;;;4.85;1.55;;;16.30;72.80;;;;;;5051698;28;20489;-68
2021/06/01 00:51:22;;;;;;;1.95;1.73;;;16.20;72.90;;;;;;5050281;28;20045;-71
2021/06/01 00:53:47;;;;;;;1.83;1.40;;;16.20;73.40;;;;;;5069497;28;20033;-68
2021/06/01 00:56:13;;;;;;;2.97;1.73;;;16.20;72.90;;;;;;5051552;28;20029;-68
2021/06/01 00:58:39;;;;;;;6.25;2.08;;;16.20;73.10;;;;;;5068898;28;20021;-68
2021/06/01 01:03:32;;;;;;;2.22;2.03;;;16.20;73.30;;;;;;5069122;28;20484;-69
2021/06/01 01:06:18;;;;;;;2.85;1.70;;;16.20;73.50;;;;;;5051483;28;20116;-68
2021/06/01 01:08:47;;;;;;;1.58;1.48;;;16.10;73.30;;;;;;5068930;28;20198;-69
2021/06/01 01:11:33;;;;;;;3.25;2.10;;;16.10;73.30;;;;;;5051285;28;20082;-69
2021/06/01 01:14:25;;;;;;;2.50;1.88;;;16.00;73.80;;;;;;5069979;28;20038;-68
2021/06/01 01:16:54;;;;;;;;;;;16.10;73.50;;;;;;5069992;28;20130;-69
2021/06/01 01:19:48;;;;;;;7.22;2.20;;;16.00;73.60;;;;;;5069664;28;19904;-69
2021/06/01 01:22:16;;;;;;;5.78;2.05;;;16.00;73.50;;;;;;5051137;28;20041;-68
2021/06/01 01:24:51;;;;;;;2.60;1.88;;;16.00;73.40;;;;;;5068664;28;20032;-68
2021/06/01 01:27:42;;;;;;;2.85;1.90;;;16.00;73.70;;;;;;5051511;28;20025;-66
2021/06/01 01:30:09;;;;;;;3.38;1.83;;;15.90;74.30;;;;;;5069114;28;20035;-69
2021/06/01 01:33:00;;;;;;;3.15;2.70;;;15.80;73.90;;;;;;5050244;28;20033;-68
2021/06/01 01:35:28;;;;;;;3.15;2.53;;;15.80;74.40;;;;;;5050766;28;20492;-72
2021/06/01 01:37:58;;;;;;;4.07;1.88;;;15.80;74.60;;;;;;5069506;28;20035;-68
2021/06/01 01:40:25;;;;;;;4.43;2.30;;;15.70;75.00;;;;;;5051084;28;20130;-73
2021/06/01 01:42:55;;;;;;;4.68;1.85;;;15.70;75.20;;;;;;5068371;28;20120;-68
2021/06/01 01:45:36;;;;;;;10.18;3.13;;;15.70;75.40;;;;;;5050974;28;20078;-68
2021/06/01 01:51:11;;;;;;;3.88;1.73;;;15.60;75.80;;;;;;5068853;28;20363;-68
2021/06/01 01:53:43;;;;;;;5.18;2.33;;;15.60;75.90;;;;;;5050576;28;20110;-68
2021/06/01 01:56:09;;;;;;;2.30;1.92;;;15.60;76.00;;;;;;5046334;28;20062;-67
2021/06/01 01:58:36;;;;;;;3.85;1.92;;;15.60;76.40;;;;;;5050325;28;20025;-68
2021/06/01 02:01:02;;;;;;;5.03;2.08;;;15.60;76.50;;;;;;5068988;28;20390;-69
2021/06/01 02:03:29;;;;;;;2.88;2.58;;;15.50;76.80;;;;;;5068522;28;20099;-73
2021/06/01 02:05:55;;;;;;;3.65;1.95;;;15.40;76.80;;;;;;5052417;28;20058;-67
2021/06/01 02:08:21;;;;;;;2.33;1.75;;;15.40;77.10;;;;;;5072432;28;20127;-68
2021/06/01 02:10:47;;;;;;;4.10;1.80;;;15.40;77.30;;;;;;5053590;28;20063;-66
2021/06/01 02:13:13;;;;;;;2.30;1.63;;;15.40;77.50;;;;;;5072079;28;20039;-67
2021/06/01 02:15:38;;;;;;;3.47;2.30;;;15.30;77.50;;;;;;5053170;28;20363;-67
2021/06/01 02:18:04;;;;;;;2.53;2.20;;;15.20;77.70;;;;;;5072623;28;20094;-67
2021/06/01 02:20:30;;;;;;;4.65;2.30;;;15.30;77.80;;;;;;5071250;28;20028;-72
2021/06/01 02:25:59;;;;;;;3.88;2.08;;;15.20;78.30;;;;;;5070950;28;20117;-67
2021/06/01 02:28:39;;;;;;;2.85;1.92;;;15.20;78.40;;;;;;5072125;28;20028;-67
2021/06/01 02:31:07;;;;;;;2.35;1.80;;;15.20;78.60;;;;;;5072200;28;20024;-67
2021/06/01 02:33:36;;;;;;;5.95;1.70;;;15.10;79.00;;;;;;5071447;28;20025;-69
2021/06/01 02:36:03;;;;;;;5.28;2.25;;;15.10;79.10;;;;;;5054337;28;20027;-69
2021/06/01 02:38:32;;;;;;;3.45;2.15;;;15.20;79.50;;;;;;5071868;28;20180;-73
2021/06/01 02:41:00;;;;;;;3.25;2.35;;;15.10;79.50;;;;;;5071824;28;20084;-68
2021/06/01 02:43:26;;;;;;;3.40;2.33;;;15.10;80.00;;;;;;5054088;28;20377;-68
2021/06/01 02:45:52;;;;;;;2.17;1.95;;;15.00;79.90;;;;;;5053084;28;20629;-68
2021/06/01 02:48:21;;;;;;;2.75;2.15;;;15.00;80.40;;;;;;5053924;28;20418;-69
2021/06/01 02:50:49;;;;;;;2.88;2.10;;;15.00;80.90;;;;;;5070791;28;20064;-68
2021/06/01 02:53:16;;;;;;;2.20;2.00;;;14.90;81.10;;;;;;5053143;28;20110;-67
2021/06/01 02:55:43;;;;;;;4.30;1.70;;;14.90;81.40;;;;;;5053031;28;20120;-69
2021/06/01 02:58:11;;;;;;;6.40;2.38;;;14.80;81.50;;;;;;5071653;28;20025;-68
2021/06/01 03:00:38;;;;;;;3.08;2.08;;;14.80;81.70;;;;;;5071524;28;20060;-68
2021/06/01 03:03:12;;;;;;;3.38;1.90;;;14.80;81.90;;;;;;5053482;28;20028;-67
2021/06/01 03:05:39;;;;;;;2.90;2.05;;;14.70;82.00;;;;;;5052979;28;20035;-68
2021/06/01 03:08:28;;;;;;;3.22;2.20;;;14.80;82.50;;;;;;5053293;28;20096;-67
2021/06/01 03:10:56;;;;;;;6.35;2.20;;;14.70;82.80;;;;;;5071037;28;20024;-68
2021/06/01 03:13:22;;;;;;;3.28;2.58;;;14.60;82.90;;;;;;5071662;28;20486;-68
2021/06/01 03:15:48;;;;;;;5.25;2.25;;;14.60;83.10;;;;;;5070617;28;20430;-68
2021/06/01 03:18:13;;;;;;;2.90;2.22;;;14.60;83.20;;;;;;5070296;28;20047;-67
2021/06/01 03:20:39;;;;;;;5.30;2.30;;;14.60;83.50;;;;;;5070920;28;20156;-67
2021/06/01 03:23:06;;;;;;;5.95;2.30;;;14.50;83.90;;;;;;5071620;28;20115;-67
2021/06/01 03:25:32;;;;;;;3.20;2.35;;;14.50;84.20;;;;;;5052760;28;20069;-71
2021/06/01 03:27:57;;;;;;;4.25;2.40;;;14.50;84.50;;;;;;5053441;28;20111;-67
2021/06/01 03:30:23;;;;;;;3.17;2.63;;;14.40;84.80;;;;;;5053276;28;20478;-66
2021/06/01 03:32:49;;;;;;;3.08;2.50;;;14.30;85.20;;;;;;5052021;28;20078;-67
2021/06/01 03:35:15;;;;;;;4.03;2.95;;;14.30;85.50;;;;;;5071015;28;20036;-66
2021/06/01 03:37:41;;;;;;;3.75;2.13;;;14.30;85.70;;;;;;5070271;28;20021;-67
2021/06/01 03:40:07;;;;;;;2.33;2.13;;;14.30;85.80;;;;;;5053090;28;20117;-69
2021/06/01 03:42:33;;;;;;;5.00;2.42;;;14.30;85.90;;;;;;5070450;28;20100;-74
2021/06/01 03:44:59;;;;;;;4.22;2.08;;;14.20;86.00;;;;;;5070986;28;20487;-67
2021/06/01 03:47:25;;;;;;;3.38;2.35;;;14.20;86.50;;;;;;5052965;28;20043;-67
2021/06/01 03:49:50;;;;;;;5.40;2.33;;;14.20;86.80;;;;;;5051938;28;20036;-67
2021/06/01 03:52:16;;;;;;;2.80;2.55;;;14.20;86.80;;;;;;5070516;28;20105;-68
2021/06/01 03:54:41;;;;;;;3.72;2.30;;;14.10;87.40;;;;;;5069657;28;20037;-67
2021/06/01 03:57:10;;;;;;;2.70;2.30;;;14.30;87.30;;;;;;5052151;28;20048;-68
2021/06/01 03:59:37;;;;;;;6.60;2.33;;;14.30;87.00;;;;;;5051998;28;20093;-74
2021/06/01 04:02:03;;;;;;;3.80;2.17;;;14.40;87.10;;;;;;5052773;28;20033;-67
2021/06/01 04:04:28;;;;;;;4.10;2.45;;;14.40;86.80;;;;;;5070450;28;20103;-67
2021/06/01 04:06:54;;;;;;;2.75;2.15;;;14.50;86.90;;;;;;5051517;28;20165;-67
2021/06/01 04:09:20;;;;;;;3.65;2.75;;;14.30;87.70;;;;;;5070381;28;20025;-67
2021/06/01 04:11:46;;;;;;;3.03;2.40;;;14.40;87.10;;;;;;5069319;28;20033;-66
2021/06/01 04:14:11;;;;;;;4.00;2.38;;;14.40;87.20;;;;;;5052310;28;20048;-67
2021/06/01 04:16:37;;;;;;;2.90;2.15;;;14.40;86.70;;;;;;5051234;28;20035;-68
2021/06/01 04:19:03;;;;;;;3.85;2.40;;;14.50;86.90;;;;;;5051654;28;20158;-67
2021/06/01 04:21:29;;;;;;;3.45;2.50;;;14.50;87.20;;;;;;5070215;28;20064;-67
2021/06/01 04:23:55;;;;;;;2.67;2.47;;;14.50;87.10;;;;;;5051300;28;20029;-68
2021/06/01 04:26:21;;;;;;;7.25;2.80;;;14.60;86.90;;;;;;5069958;28;20107;-68
2021/06/01 04:28:46;;;;;;;5.82;2.53;;;14.60;86.70;;;;;;5068732;28;20531;-68
2021/06/01 04:31:12;;;;;;;41.85;8.75;;;14.60;86.40;;;;;;5052007;28;20119;-68
2021/06/01 04:33:38;;;;;;;6.95;3.47;;;14.70;87.50;;;;;;5051427;28;20032;-74
2021/06/01 04:36:04;;;;;;;3.58;2.67;;;14.70;86.80;;;;;;5069754;28;20385;-68
2021/06/01 04:38:29;;;;;;;5.28;2.58;;;14.70;86.10;;;;;;5069211;28;20315;-68
2021/06/01 04:40:55;;;;;;;3.13;2.03;;;14.70;86.30;;;;;;5068925;28;20027;-68
2021/06/01 04:43:21;;;;;;;2.83;2.55;;;14.80;86.30;;;;;;5051035;28;20090;-68
2021/06/01 04:45:46;;;;;;;4.47;2.33;;;14.80;85.80;;;;;;5050627;28;20036;-66
2021/06/01 04:48:12;;;;;;;4.07;2.20;;;14.90;86.20;;;;;;5051968;28;20035;-66
2021/06/01 04:50:38;;;;;;;2.25;2.05;;;15.00;86.00;;;;;;5048096;28;20386;-73
2021/06/01 04:53:04;;;;;;;5.60;2.95;;;14.90;86.60;;;;;;5047304;28;20036;-67
2021/06/01 04:55:29;;;;;;;4.57;2.55;;;15.00;86.60;;;;;;5048431;28;20367;-67
2021/06/01 04:57:56;;;;;;;4.15;2.63;;;15.00;85.90;;;;;;5048771;28;20084;-67
2021/06/01 05:00:22;;;;;;;8.13;2.88;;;15.10;85.80;;;;;;5050005;28;20045;-67
2021/06/01 05:02:47;;;;;;;4.88;3.58;;;15.20;85.40;;;;;;5048196;28;20106;-67
2021/06/01 05:05:13;;;;;;;7.90;2.90;;;15.20;86.40;;;;;;5047618;28;20025;-66
2021/06/01 05:07:39;;;;;;;5.40;3.28;;;15.30;84.50;;;;;;5047390;28;20021;-72
2021/06/01 05:10:06;;;;;;;3.17;2.30;;;15.40;84.20;;;;;;5048591;28;20035;-67
2021/06/01 05:12:32;;;;;;;3.90;2.08;;;15.40;83.40;;;;;;5047788;28;20466;-66
2021/06/01 05:14:58;;;;;;;4.63;2.63;;;15.50;83.70;;;;;;5047169;28;20318;-66
2021/06/01 05:17:24;;;;;;;5.55;2.53;;;15.50;83.30;;;;;;5047112;28;20127;-67
2021/06/01 05:19:50;;;;;;;3.53;2.42;;;15.60;83.80;;;;;;5047208;28;20040;-68
2021/06/01 05:22:16;;;;;;;6.00;2.38;;;15.60;83.50;;;;;;5047572;28;20052;-67
2021/06/01 05:24:43;;;;;;;6.30;2.72;;;15.60;83.10;;;;;;5045788;28;20045;-68
2021/06/01 05:27:10;;;;;;;6.82;2.45;;;15.70;83.80;;;;;;5019577;28;20117;-66
2021/06/01 05:29:40;;;;;;;4.95;2.72;;;15.70;83.50;;;;;;5009075;28;20463;-67
2021/06/01 05:32:48;;;;;;;4.28;2.60;;;15.80;82.30;;;;;;5007939;28;20030;-66
2021/06/01 05:34:59;;;;;;;5.68;2.30;;;15.80;82.50;;;;;;5008446;28;20061;-62
2021/06/01 05:37:29;;;;;;;5.15;2.95;;;16.30;86.80;;;;;;5020517;28;20030;-62
2021/06/01 05:39:55;;;;;;;7.77;2.70;;;16.60;83.30;;;;;;5026989;28;20022;-62
2021/06/01 05:42:21;;;;;;;5.53;3.30;;;16.70;81.40;;;;;;5019280;28;20033;-64
2021/06/01 05:44:47;;;;;;;10.70;2.42;;;16.80;80.30;;;;;;5010519;28;20072;-66
2021/06/01 05:47:17;;;;;;;9.63;2.58;;;16.80;80.20;;;;;;5013746;28;20124;-63
2021/06/01 05:49:42;;;;;;;10.55;2.53;;;16.80;79.80;;;;;;5028868;28;20447;-67
2021/06/01 05:52:09;;;;;;;4.97;2.58;;;16.80;80.20;;;;;;5068309;28;20055;-65
2021/06/01 05:54:35;;;;;;;4.68;2.38;;;16.90;80.90;;;;;;5052986;28;20037;-65
2021/06/01 05:57:00;;;;;;;5.70;2.67;;;17.00;79.60;;;;;;5069869;28;20092;-63
2021/06/01 05:59:26;;;;;;;6.43;2.53;;;17.10;79.40;;;;;;5052848;28;20434;-68
2021/06/01 06:01:52;;;;;;;3.25;2.15;;;17.00;79.40;;;;;;5069785;28;20032;-67
2021/06/01 06:04:17;;;;;;;4.40;2.38;;;16.90;79.90;;;;;;5052256;28;20096;-66
2021/06/01 06:06:43;;;;;;;3.03;2.17;;;16.80;79.60;;;;;;5069320;28;20064;-67
2021/06/01 06:09:09;;;;;;;3.45;2.15;;;16.80;79.60;;;;;;5052529;28;20489;-67
2021/06/01 06:11:34;;;;;;;5.95;2.35;;;16.80;79.20;;;;;;5070842;28;20201;-66
2021/06/01 06:14:00;;;;;;;2.75;2.47;;;16.60;79.40;;;;;;5051339;28;20025;-68
2021/06/01 06:16:29;;;;;;;3.05;2.40;;;16.60;80.10;;;;;;5070177;28;20127;-67
2021/06/01 06:18:59;;;;;;;5.57;2.22;;;16.70;80.20;;;;;;5069164;28;20060;-67
2021/06/01 06:21:25;;;;;;;4.20;3.10;;;16.80;80.00;;;;;;5052395;28;20120;-67
2021/06/01 06:23:51;;;;;;;9.15;2.70;;;16.90;78.80;;;;;;5069613;28;20099;-67
2021/06/01 06:26:17;;;;;;;3.50;2.40;;;16.80;79.30;;;;;;5052227;28;20031;-66
2021/06/01 06:28:43;;;;;;;5.45;2.55;;;16.90;79.00;;;;;;5051640;28;20493;-74
2021/06/01 06:31:09;;;;;;;4.82;1.95;;;17.00;79.10;;;;;;5069906;28;20033;-67
2021/06/01 06:33:34;;;;;;;4.43;2.60;;;17.10;78.60;;;;;;5033357;28;20043;-67
2021/06/01 06:36:00;;;;;;;3.72;2.92;;;17.00;78.10;;;;;;5051836;28;20751;-67
2021/06/01 06:38:26;;;;;;;5.65;2.45;;;16.90;78.20;;;;;;5070034;28;20027;-67
2021/06/01 06:43:20;;;;;;;2.80;2.17;;;17.20;78.60;;;;;;5070110;28;20074;-66
2021/06/01 06:45:47;;;;;;;7.25;2.38;;;17.20;77.20;;;;;;5050795;28;20066;-67
2021/06/01 06:48:13;;;;;;;6.15;2.30;;;17.20;76.80;;;;;;5051570;28;20032;-67
2021/06/01 06:50:39;;;;;;;8.45;2.50;;;17.20;77.70;;;;;;5047498;28;20190;-74
2021/06/01 06:53:05;;;;;;;5.22;2.63;;;17.20;77.30;;;;;;5049095;28;20093;-67
2021/06/01 06:55:32;;;;;;;4.13;2.38;;;17.30;77.20;;;;;;5049737;28;20125;-68
2021/06/01 06:57:58;;;;;;;3.42;2.85;;;17.50;76.90;;;;;;5049110;28;20315;-67
2021/06/01 07:00:24;;;;;;;3.92;2.70;;;17.70;77.10;;;;;;5047885;28;20044;-66
2021/06/01 07:02:50;;;;;;;3.83;2.42;;;17.80;77.00;;;;;;5048759;28;20032;-67
2021/06/01 07:05:19;;;;;;;6.90;3.63;;;17.90;76.70;;;;;;5048171;28;20374;-68
2021/06/01 07:07:48;;;;;;;8.82;2.75;;;18.00;76.30;;;;;;5048908;28;20048;-49
2021/06/01 07:10:15;;;;;;;5.03;1.65;;;18.00;75.10;;;;;;5049385;28;20025;-50
2021/06/01 07:12:43;;;;;;;2.33;1.80;;;18.60;81.60;;;;;;5046610;28;20052;-57
2021/06/01 07:15:14;;;;;;;12.63;2.88;;;18.70;78.50;;;;;;5048869;28;20115;-51
2021/06/01 07:17:44;;;;;;;9.20;2.33;;;19.00;80.10;;;;;;5048888;28;20102;-58
2021/06/01 07:20:13;;;;;;;5.40;2.20;;;19.20;76.30;;;;;;5046894;28;20083;-51
2021/06/01 07:22:38;;;;;;;8.45;1.77;;;19.40;78.80;;;;;;5048717;28;20040;-52
2021/06/01 07:25:05;;;;;;;6.80;1.88;;;19.50;77.10;;;;;;5048260;28;20040;-51
2021/06/01 07:27:31;;;;;;;3.75;2.20;;;19.60;77.00;;;;;;5048960;28;20316;-51
2021/06/01 07:29:56;;;;;;;2.85;2.00;;;19.70;75.90;;;;;;5031506;28;20089;-51
2021/06/01 07:32:22;;;;;;;4.70;2.28;;;19.20;75.00;;;;;;5028803;28;20359;-51
2021/06/01 07:34:48;;;;;;;5.38;2.72;;;19.50;75.00;;;;;;5028515;28;20055;-51
2021/06/01 07:37:16;;;;;;;7.43;2.17;;;19.50;73.40;;;;;;5029133;28;20116;-53
2021/06/01 07:39:42;;;;;;;5.18;1.90;;;19.50;75.90;;;;;;5028670;28;20326;-51
2021/06/01 07:42:08;;;;;;;9.43;2.08;;;19.80;77.50;;;;;;5029659;28;20067;-51
2021/06/01 07:44:34;;;;;;;4.05;1.95;;;20.20;74.60;;;;;;5030375;28;20414;-51
2021/06/01 07:47:00;;;;;;;6.38;2.38;;;20.00;72.80;;;;;;5030404;28;20519;-51
2021/06/01 07:49:26;;;;;;;3.95;1.73;;;20.10;72.30;;;;;;5030571;28;20075;-50
2021/06/01 07:51:52;;;;;;;2.42;1.80;;;20.20;74.60;;;;;;5044520;28;20049;-66
2021/06/01 07:54:18;;;;;;;7.50;3.22;;;19.80;69.90;;;;;;5050620;28;20469;-66
2021/06/01 07:56:44;;;;;;;5.60;2.55;;;19.80;72.60;;;;;;5032117;28;20031;-66
2021/06/01 07:59:09;;;;;;;2.30;1.95;;;20.10;72.40;;;;;;5032461;28;20029;-66
2021/06/01 08:01:35;;;;;;;5.45;1.90;;;20.40;72.00;;;;;;5032587;28;20466;-66
2021/06/01 08:04:01;;;;;;;4.20;2.47;;;20.70;70.60;;;;;;5031091;28;20363;-66
2021/06/01 08:06:30;;;;;;;2.85;1.48;;;20.90;70.00;;;;;;5050311;28;20141;-67
2021/06/01 08:08:56;;;;;;;2.58;2.15;;;20.90;66.90;;;;;;5049839;28;20070;-67
2021/06/01 08:11:21;;;;;;;3.30;2.28;;;20.80;66.60;;;;;;5050062;28;20150;-65
2021/06/01 08:13:47;;;;;;;5.05;1.50;;;20.80;66.20;;;;;;5030742;28;20343;-66
2021/06/01 08:16:13;;;;;;;3.47;2.30;;;21.00;68.10;;;;;;5032059;28;20025;-65
2021/06/01 08:18:48;;;;;;;4.57;2.15;;;21.10;67.10;;;;;;5031955;28;20369;-65
2021/06/01 08:21:18;;;;;;;2.92;2.30;;;21.40;65.60;;;;;;5031849;28;20470;-66
2021/06/01 08:23:45;;;;;;;2.05;1.42;;;21.50;65.50;;;;;;5031383;28;20418;-73
2021/06/01 08:26:12;;;;;;;8.18;2.30;;;21.50;64.70;;;;;;5031700;28;20044;-66
2021/06/01 08:28:38;;;;;;;6.88;2.10;;;21.80;66.10;;;;;;5031174;28;20081;-66
2021/06/01 08:31:04;;;;;;;3.97;1.85;;;22.20;64.20;;;;;;5031089;28;20032;-66
2021/06/01 08:33:30;;;;;;;6.80;1.80;;;22.30;61.50;;;;;;5031849;28;20021;-66
2021/06/01 08:35:57;;;;;;;4.07;2.40;;;21.70;61.20;;;;;;5030909;28;20036;-66
2021/06/01 08:38:23;;;;;;;4.70;2.03;;;21.60;63.60;;;;;;5031785;28;20401;-65
2021/06/01 08:40:51;;;;;;;6.63;2.63;;;22.00;62.80;;;;;;5049209;28;20013;-63
2021/06/01 08:43:26;;;;;;;18.08;3.20;;;22.10;65.80;;;;;;5049535;28;20025;-62
2021/06/01 08:45:54;;;;;;;10.38;3.88;;;22.30;63.40;;;;;;5048950;28;20102;-63
2021/06/01 08:48:20;;;;;;;25.38;6.60;;;22.60;64.90;;;;;;5049265;28;20036;-63
2021/06/01 08:50:49;;;;;;;6.00;2.00;;;22.50;70.00;;;;;;5053552;28;20036;-63
2021/06/01 08:53:15;;;;;;;6.30;2.38;;;22.00;60.80;;;;;;5069272;28;20033;-63
2021/06/01 08:55:42;;;;;;;4.45;1.80;;;21.90;62.10;;;;;;5069526;28;20029;-63
2021/06/01 08:58:16;;;;;;;6.85;2.40;;;22.30;64.50;;;;;;5068811;28;20107;-63
2021/06/01 09:00:42;;;;;;;4.38;1.85;;;22.80;62.10;;;;;;5069374;28;20024;-63
2021/06/01 09:03:17;;;;;;;2.03;1.83;;;22.70;58.40;;;;;;5068447;28;20412;-63
2021/06/01 09:09:06;;;;;;;4.18;1.98;;;22.70;58.50;;;;;;5068769;28;20070;-62
2021/06/01 09:11:44;;;;;;;5.10;1.65;;;22.80;62.20;;;;;;5068810;28;20369;-61
2021/06/01 09:22:49;;;;;;;2.85;1.77;;;23.20;56.90;;;;;;5070690;28;20125;-64
2021/06/01 09:25:21;;;;;;;3.50;1.70;;;23.30;57.50;;;;;;5071626;28;20422;-62
2021/06/01 09:27:53;;;;;;;5.00;1.85;;;23.50;57.40;;;;;;5052955;28;20032;-63
2021/06/01 09:30:31;;;;;;;2.30;1.80;;;23.70;56.20;;;;;;5053682;28;20104;-64
2021/06/01 09:32:57;;;;;;;2.53;1.20;;;23.80;54.00;;;;;;5071108;28;20221;-53
2021/06/01 09:35:45;;;;;;;6.35;1.92;;;23.20;56.30;;;;;;5071337;28;20111;-55
2021/06/01 09:38:11;;;;;;;4.97;1.55;;;23.50;56.10;;;;;;5071604;28;20033;-52
2021/06/01 09:40:38;;;;;;;7.93;2.17;;;23.60;56.00;;;;;;5071072;28;20025;-55
2021/06/01 09:43:07;;;;;;;2.85;1.25;;;23.40;53.90;;;;;;5052060;28;20093;-52
2021/06/01 09:45:33;;;;;;;2.85;1.58;;;23.00;53.70;;;;;;5071082;28;20040;-54
2021/06/01 09:48:10;;;;;;;3.05;1.80;;;23.10;56.30;;;;;;5052098;28;20037;-51
2021/06/01 09:53:17;;;;;;;4.10;2.03;;;23.20;54.50;;;;;;5070541;28;20157;-54
2021/06/01 09:55:47;;;;;;;3.88;1.73;;;23.40;54.40;;;;;;5071141;28;20342;-52
2021/06/01 09:58:16;;;;;;;2.13;1.48;;;23.40;54.10;;;;;;5053253;28;20021;-52
2021/06/01 10:00:43;;;;;;;4.53;1.77;;;23.50;53.60;;;;;;5053034;28;20032;-52
2021/06/01 10:03:21;;;;;;;3.90;1.65;;;23.50;55.30;;;;;;5070385;28;20029;-52
2021/06/01 10:05:55;;;;;;;1.23;1.13;;;23.60;53.70;;;;;;5051857;28;20108;-53
2021/06/01 10:08:25;;;;;;;4.43;1.42;;;23.60;53.40;;;;;;5053015;28;20103;-57
2021/06/01 10:10:57;;;;;;;3.38;1.52;;;23.60;52.50;;;;;;5070201;28;20335;-53
2021/06/01 10:13:25;;;;;;;3.17;1.17;;;23.80;53.80;;;;;;5070413;28;20036;-54
2021/06/01 10:15:52;;;;;;;3.10;1.70;;;24.20;52.00;;;;;;5051493;28;20420;-53
2021/06/01 10:18:19;;;;;;;4.25;1.70;;;24.50;50.80;;;;;;5040873;28;20037;-56
2021/06/01 10:20:47;;;;;;;2.35;1.38;;;24.40;50.80;;;;;;5050118;28;20025;-53
2021/06/01 10:23:19;;;;;;;5.10;1.40;;;24.40;51.30;;;;;;5050114;28;20029;-51
2021/06/01 10:25:45;;;;;;;5.60;1.55;;;24.70;50.80;;;;;;5031891;28;20116;-51
2021/06/01 10:28:11;;;;;;;5.53;1.70;;;24.80;50.10;;;;;;5031444;28;20120;-53
2021/06/01 10:30:40;;;;;;;1.52;1.40;;;24.80;50.20;;;;;;5049986;28;20492;-52
2021/06/01 10:33:11;;;;;;;4.68;1.35;;;24.30;51.60;;;;;;5049409;28;20266;-54
2021/06/01 10:35:43;;;;;;;4.32;1.50;;;24.10;50.80;;;;;;5031911;28;20056;-52
2021/06/01 10:52:27;;;;;;;2.67;1.40;;;24.70;50.30;;;;;;5049174;28;20450;-52
2021/06/01 10:54:58;;;;;;;2.33;1.50;;;24.80;50.10;;;;;;5048621;28;20033;-52
2021/06/01 10:57:55;;;;;;;2.53;1.00;;;25.30;50.90;;;;;;5031297;28;20120;-52
2021/06/01 11:03:16;;;;;;;1.30;1.20;;;25.80;48.30;;;;;;5049504;28;20029;-53
2021/06/01 11:05:54;;;;;;;2.08;1.20;;;26.30;48.50;;;;;;5031465;28;20279;-53
2021/06/01 11:08:45;;;;;;;1.60;1.30;;;26.20;47.80;;;;;;5031212;28;20029;-53
2021/06/01 11:11:23;;;;;;;6.20;1.52;;;25.90;47.00;;;;;;5031534;28;20041;-53
2021/06/01 11:14:30;;;;;;;2.63;1.33;;;26.00;47.70;;;;;;5048753;28;20029;-53
2021/06/01 11:17:01;;;;;;;5.03;1.20;;;26.20;47.50;;;;;;5048908;28;20116;-55
2021/06/01 11:19:51;;;;;;;6.22;1.52;;;26.10;45.90;;;;;;5031058;28;20458;-54
2021/06/01 11:22:31;;;;;;;2.03;1.50;;;26.20;47.00;;;;;;5031157;28;20122;-54
2021/06/01 11:35:41;;;;;;;1.83;1.02;;;26.20;46.30;;;;;;5049026;28;20108;-53
2021/06/01 11:38:18;;;;;;;2.78;1.02;;;25.70;45.90;;;;;;5047408;28;20031;-51
2021/06/01 11:43:25;;;;;;;4.03;1.58;;;25.40;47.90;;;;;;5050415;28;20128;-52
2021/06/01 11:50:58;;;;;;;4.32;1.20;;;26.00;46.60;;;;;;5049596;28;20032;-52
2021/06/01 11:51:27;;;;;;;1.55;1.10;;;26.00;47.20;;;;;;5048947;28;20073;-50
2021/06/01 11:54:06;;;;;;;1.90;0.95;;;26.10;46.20;;;;;;5031046;28;20031;-52
2021/06/01 12:13:14;;;;;;;4.40;1.45;;;26.60;46.00;;;;;;5048944;28;20123;-52
2021/06/01 12:18:40;;;;;;;2.35;1.52;;;26.80;45.60;;;;;;4995248;28;20049;-70
2021/06/01 12:21:31;;;;;;;4.05;1.33;;;27.00;44.50;;;;;;5031053;28;20461;-71
2021/06/01 12:24:19;;;;;;;5.15;1.10;;;27.20;45.30;;;;;;5049005;28;20064;-70
2021/06/01 12:32:22;;;;;;;1.27;1.15;;;26.50;46.20;;;;;;5049793;28;20134;-68
2021/06/01 13:20:18;;;;;;;1.77;1.02;;;27.30;44.00;;;;;;5048449;28;20083;-67
2021/06/01 13:47:50;;;;;;;1.60;0.98;;;27.40;44.10;;;;;;5048982;28;20031;-69
2021/06/01 13:50:24;;;;;;;1.95;0.98;;;27.00;44.10;;;;;;5029420;28;20025;-68
2021/06/01 13:55:45;;;;;;;2.85;1.17;;;26.60;44.30;;;;;;5010521;28;20037;-68
2021/06/01 14:00:44;;;;;;;1.30;1.20;;;26.30;44.50;;;;;;5048270;28;20116;-69
2021/06/01 14:19:52;;;;;;;18.13;2.13;;;26.40;43.70;;;;;;5052036;28;20060;-51
2021/06/01 14:30:29;;;;;;;1.92;1.15;;;26.60;44.40;;;;;;5068640;28;20027;-52
2021/06/01 14:35:54;;;;;;;3.30;1.63;;;26.80;44.50;;;;;;5061639;28;20594;-53
2021/06/01 15:32:29;;;;;;;2.97;1.05;;;26.20;45.20;;;;;;5067938;28;20433;-54
2021/06/01 16:13:30;;;;;;;4.10;1.30;;;25.10;45.30;;;;;;5068117;28;20464;-54
2021/06/01 16:21:42;;;;;;;4.50;1.38;;;24.90;46.80;;;;;;5067065;28;20123;-52
2021/06/01 17:05:35;;;;;;;3.83;1.40;;;24.90;44.30;;;;;;5045564;28;20055;-53
2021/06/01 17:13:31;;;;;;;1.65;1.15;;;24.60;46.50;;;;;;5047242;28;20070;-52
2021/06/01 17:15:57;;;;;;;1.60;1.20;;;24.50;45.60;;;;;;5029416;28;20439;-53
2021/06/01 17:18:50;;;;;;;2.85;1.50;;;24.40;47.50;;;;;;5027269;28;20116;-53
2021/06/01 17:21:47;;;;;;;1.80;1.38;;;24.50;45.70;;;;;;5028343;28;20052;-52
2021/06/01 17:34:34;;;;;;;2.47;1.08;;;24.30;45.80;;;;;;5066584;28;20040;-52
2021/06/01 17:35:09;;;;;;;3.03;1.50;;;24.40;46.50;;;;;;5065501;28;20032;-51
2021/06/01 17:37:35;;;;;;;2.50;1.67;;;24.40;46.30;;;;;;5050567;28;20036;-54
2021/06/01 17:40:02;;;;;;;5.65;1.50;;;24.50;46.10;;;;;;5070227;28;20086;-51
2021/06/01 17:42:30;;;;;;;1.85;1.27;;;24.40;46.80;;;;;;5070158;28;20465;-52
2021/06/01 17:45:00;;;;;;;2.95;1.50;;;24.30;46.90;;;;;;5070713;28;20399;-52
2021/06/01 17:47:27;;;;;;;1.55;1.45;;;24.30;46.70;;;;;;5044579;28;20029;-53
2021/06/01 17:49:55;;;;;;;4.57;1.27;;;24.30;47.20;;;;;;5032262;28;20033;-53
2021/06/01 17:52:28;;;;;;;2.83;1.90;;;24.20;47.80;;;;;;5027753;28;20449;-52
2021/06/01 17:54:55;;;;;;;3.03;1.33;;;24.20;47.30;;;;;;5031884;28;20029;-51
2021/06/01 17:57:24;;;;;;;3.35;1.63;;;24.10;47.60;;;;;;5029882;28;20081;-52
2021/06/01 17:59:51;;;;;;;2.67;1.25;;;24.20;47.40;;;;;;5031719;28;20105;-51
2021/06/01 18:02:18;;;;;;;2.47;1.70;;;24.10;46.90;;;;;;5030076;28;20148;-52
2021/06/01 18:04:47;;;;;;;2.15;1.55;;;24.00;47.90;;;;;;5030714;28;20038;-53
2021/06/01 18:07:22;;;;;;;4.35;1.45;;;24.00;48.10;;;;;;5031470;28;20128;-52
2021/06/01 18:10:27;;;;;;;1.60;1.50;;;23.90;47.90;;;;;;5031933;28;20508;-51
2021/06/01 19:24:58;;;;;;;31.25;6.82;;;23.00;50.80;;;;;;5030961;28;20036;-51
2021/06/01 19:51:58;;;;;;;14.43;3.90;;;22.70;65.10;;;;;;5044646;28;20413;-52
2021/06/01 19:54:27;;;;;;;41.75;6.50;;;22.70;64.70;;;;;;5031430;28;20057;-53
2021/06/01 19:56:53;;;;;;;11.23;3.25;;;22.90;67.20;;;;;;5049833;28;20035;-54
2021/06/01 19:59:19;;;;;;;19.55;5.30;;;22.70;65.70;;;;;;5030446;28;20107;-51
2021/06/01 20:01:46;;;;;;;6.10;3.55;;;22.80;70.20;;;;;;5031174;28;20028;-62
2021/06/01 20:04:13;;;;;;;6.30;2.85;;;22.60;58.80;;;;;;5031772;28;20035;-66
2021/06/01 20:06:39;;;;;;;7.85;2.90;;;22.50;57.30;;;;;;5049721;28;20442;-64
2021/06/01 20:09:06;;;;;;;4.13;2.60;;;22.40;57.30;;;;;;5049834;28;20168;-64
2021/06/01 20:11:34;;;;;;;3.00;2.33;;;22.30;56.70;;;;;;5049419;28;20129;-65